Island City, Indiana
Current Conditions -  °F | °C
As of 8:15 AM on Thursday 27 Nov 2014 (Local Time) from KDCY Reporting Station
Scattered Clouds Scattered Clouds  
Wind Chill: 18°   Ceiling: Unl
Heat Index: 27°   Visibility: 7mi
Dew Point: 24°   Wind: 10mph
Humidity: 89%   Direction: 320°NW
Pressure: 30.34"   Gusts: NA
Location:  39.0608°N, 87.1852°W
Report Text: KDCY 271315Z AUTO 32009KT 7SM SCT018 M03/M04 A3034 RMK AO2 T10271043
Loading
Personal Weather Stations






























Interactive Weather Map New forecast layout! Learn more

10-Day Weather Forecast

Advertisements
Track Severe Weather on mobile